createdAt,value
2019-05-23T00:01:50.677Z,8.50
2019-05-23T00:04:53.874Z,6.20
2019-05-23T00:07:42.555Z,7.20
2019-05-23T00:10:31.095Z,7.33
2019-05-23T00:13:01.621Z,7.23
2019-05-23T00:15:36.503Z,6.87
2019-05-23T00:18:04.450Z,6.50
2019-05-23T00:20:32.710Z,5.40
2019-05-23T00:23:05.197Z,5.80
2019-05-23T00:25:33.865Z,7.63
2019-05-23T00:28:03.608Z,7.00
2019-05-23T00:30:49.149Z,6.87
2019-05-23T00:33:27.720Z,4.83
2019-05-23T00:35:56.743Z,6.03
2019-05-23T00:38:28.143Z,6.27
2019-05-23T00:40:54.950Z,5.27
2019-05-23T00:43:21.876Z,4.90
2019-05-23T00:45:50.415Z,6.70
2019-05-23T00:48:21.332Z,6.17
2019-05-23T00:50:52.405Z,4.97
2019-05-23T00:53:20.555Z,3.80
2019-05-23T00:55:48.788Z,5.27
2019-05-23T00:58:19.183Z,4.80
2019-05-23T01:00:48.616Z,4.67
2019-05-23T01:03:18.688Z,5.63
2019-05-23T01:05:46.140Z,5.07
2019-05-23T01:08:13.261Z,5.03
2019-05-23T01:10:42.067Z,5.20
2019-05-23T01:13:09.929Z,5.47
2019-05-23T01:15:50.895Z,6.00
2019-05-23T01:18:20.830Z,5.83
2019-05-23T01:20:59.045Z,6.07
2019-05-23T01:23:29.193Z,6.27
2019-05-23T01:25:56.597Z,5.13
2019-05-23T01:28:23.932Z,6.10
2019-05-23T01:30:58.315Z,6.03
2019-05-23T01:33:26.943Z,5.87
2019-05-23T01:35:53.656Z,4.37
2019-05-23T01:38:22.203Z,5.00
2019-05-23T01:40:49.537Z,5.43
2019-05-23T01:43:17.589Z,4.67
2019-05-23T01:45:45.885Z,6.07
2019-05-23T01:48:12.919Z,5.30
2019-05-23T01:50:40.661Z,5.77
2019-05-23T01:53:09.524Z,5.70
2019-05-23T01:55:36.859Z,5.50
2019-05-23T01:58:04.273Z,4.87
2019-05-23T02:00:33.732Z,5.67
2019-05-23T02:03:01.344Z,5.47
2019-05-23T02:05:29.178Z,6.43
2019-05-23T02:07:56.210Z,5.40
2019-05-23T02:10:24.000Z,5.67
2019-05-23T02:12:51.969Z,5.77
2019-05-23T02:15:19.895Z,5.60
2019-05-23T02:17:47.537Z,5.80
2019-05-23T02:20:23.116Z,5.50
2019-05-23T02:22:49.825Z,5.40
2019-05-23T02:25:18.907Z,5.53
2019-05-23T02:27:46.278Z,5.20
2019-05-23T02:30:33.138Z,4.70
2019-05-23T02:32:49.675Z,5.03
2019-05-23T02:35:17.996Z,5.23
2019-05-23T02:37:46.555Z,5.10
2019-05-23T02:40:15.313Z,4.70
2019-05-23T02:42:43.957Z,5.53
2019-05-23T02:45:13.566Z,5.00
2019-05-23T02:47:42.775Z,5.17
2019-05-23T02:50:17.886Z,4.43
2019-05-23T02:52:51.261Z,5.57
2019-05-23T02:55:33.830Z,4.53
2019-05-23T02:58:04.884Z,5.43
2019-05-23T03:00:55.646Z,5.40
2019-05-23T03:03:32.389Z,5.07
2019-05-23T03:06:04.045Z,4.40
2019-05-23T03:08:31.209Z,5.10
2019-05-23T03:11:13.801Z,5.03
2019-05-23T03:13:44.105Z,5.23
2019-05-23T03:16:20.971Z,4.97
2019-05-23T03:18:52.369Z,5.50
2019-05-23T03:21:19.055Z,5.77
2019-05-23T03:23:48.802Z,4.00
2019-05-23T03:26:39.758Z,5.30
2019-05-23T03:29:07.810Z,5.50
2019-05-23T03:31:36.539Z,5.20
2019-05-23T03:34:05.019Z,5.67
2019-05-23T03:36:32.979Z,7.63
2019-05-23T03:39:01.687Z,5.33
2019-05-23T03:41:30.141Z,5.97
2019-05-23T03:43:57.093Z,5.97
2019-05-23T03:46:25.878Z,5.63
2019-05-23T03:48:53.812Z,5.43
2019-05-23T03:51:21.323Z,5.87
2019-05-23T03:53:51.166Z,5.77
2019-05-23T03:56:19.485Z,5.30
2019-05-23T03:58:47.226Z,6.47
2019-05-23T04:01:15.617Z,5.47
2019-05-23T04:03:44.360Z,5.60
2019-05-23T04:06:12.234Z,5.80
2019-05-23T04:08:39.904Z,7.00
2019-05-23T04:11:07.183Z,5.70
2019-05-23T04:13:34.262Z,5.70
2019-05-23T04:16:01.124Z,4.97
2019-05-23T04:18:28.069Z,6.10
2019-05-23T04:20:55.085Z,5.60
2019-05-23T04:23:22.107Z,6.50
2019-05-23T04:25:48.927Z,5.80
2019-05-23T04:28:16.102Z,6.83
2019-05-23T04:30:44.054Z,6.03
2019-05-23T04:33:11.194Z,7.53
2019-05-23T04:35:38.121Z,5.90
2019-05-23T04:38:05.544Z,7.60
2019-05-23T04:40:33.259Z,6.30
2019-05-23T04:43:00.026Z,7.47
2019-05-23T04:45:28.227Z,7.03
2019-05-23T04:47:55.207Z,5.77
2019-05-23T04:50:22.703Z,7.00
2019-05-23T04:52:50.118Z,7.07
2019-05-23T04:55:19.308Z,6.93
2019-05-23T04:57:46.454Z,7.57
2019-05-23T05:00:16.855Z,7.20
2019-05-23T05:02:46.303Z,7.60
2019-05-23T05:05:14.244Z,6.67
2019-05-23T05:07:40.967Z,6.77
2019-05-23T05:10:11.807Z,7.47
2019-05-23T05:12:38.641Z,6.40
2019-05-23T05:15:05.587Z,7.93
2019-05-23T05:17:33.023Z,6.67
2019-05-23T05:20:00.088Z,7.80
2019-05-23T05:22:26.971Z,7.47
2019-05-23T05:24:53.913Z,7.30
2019-05-23T05:27:21.894Z,8.87
2019-05-23T05:29:48.674Z,8.20
2019-05-23T05:32:16.357Z,7.87
2019-05-23T05:34:44.201Z,9.20
2019-05-23T05:37:11.090Z,8.83
2019-05-23T05:39:37.734Z,9.23
2019-05-23T05:42:05.056Z,8.60
2019-05-23T05:44:32.012Z,11.03
2019-05-23T05:46:59.644Z,9.70
2019-05-23T05:49:27.557Z,9.50
2019-05-23T05:51:55.760Z,10.63
2019-05-23T05:54:22.859Z,9.77
2019-05-23T05:56:49.525Z,9.70
2019-05-23T05:59:16.245Z,9.20
2019-05-23T06:01:43.297Z,9.60
2019-05-23T06:04:09.897Z,9.27
2019-05-23T06:06:38.439Z,10.50
2019-05-23T06:09:17.543Z,9.87
2019-05-23T06:11:44.725Z,9.13
2019-05-23T06:14:11.369Z,9.30
2019-05-23T06:16:38.556Z,11.00
2019-05-23T06:19:05.747Z,10.87
2019-05-23T06:21:34.087Z,10.40
2019-05-23T06:24:02.291Z,11.50
2019-05-23T06:26:31.333Z,11.13
2019-05-23T06:28:58.146Z,11.63
2019-05-23T06:31:25.091Z,12.10
2019-05-23T06:33:52.113Z,10.80
2019-05-23T06:36:19.074Z,12.97
2019-05-23T06:38:46.202Z,11.10
2019-05-23T06:41:14.613Z,12.77
2019-05-23T06:43:41.615Z,13.77
2019-05-23T06:46:08.854Z,12.40
2019-05-23T06:48:36.442Z,14.07
2019-05-23T06:51:03.518Z,12.33
2019-05-23T06:53:30.511Z,12.53
2019-05-23T06:55:57.568Z,13.10
2019-05-23T06:58:25.135Z,12.43
2019-05-23T07:00:52.243Z,13.67
2019-05-23T07:03:21.190Z,12.80
2019-05-23T07:05:48.650Z,16.30
2019-05-23T07:08:15.413Z,12.57
2019-05-23T07:10:43.522Z,13.10
2019-05-23T07:13:10.647Z,12.23
2019-05-23T07:15:37.765Z,13.20
2019-05-23T07:18:05.355Z,11.53
2019-05-23T07:20:32.477Z,13.47
2019-05-23T07:23:00.121Z,14.00
2019-05-23T07:25:26.919Z,12.07
2019-05-23T07:27:54.032Z,38.43
2019-05-23T07:30:24.571Z,13.07
2019-05-23T07:32:51.645Z,12.73
2019-05-23T07:35:19.723Z,11.23
2019-05-23T07:37:47.417Z,10.47
2019-05-23T07:40:14.818Z,10.80
2019-05-23T07:42:42.156Z,10.77
2019-05-23T07:45:12.702Z,12.10
2019-05-23T07:47:40.334Z,10.43
2019-05-23T07:50:07.660Z,9.53
2019-05-23T07:52:34.718Z,9.50
2019-05-23T07:55:03.799Z,10.50
2019-05-23T07:57:32.487Z,9.87
2019-05-23T08:00:00.098Z,9.00
2019-05-23T08:02:34.310Z,10.67
2019-05-23T08:05:01.796Z,10.07
2019-05-23T08:07:32.873Z,9.87
2019-05-23T08:09:59.157Z,9.47
2019-05-23T08:12:26.485Z,9.80
2019-05-23T08:14:54.593Z,10.73
2019-05-23T08:17:21.728Z,8.97
2019-05-23T08:19:50.162Z,10.13
2019-05-23T08:22:17.051Z,8.83
2019-05-23T08:24:44.023Z,8.43
2019-05-23T08:27:11.473Z,9.17
2019-05-23T08:29:39.371Z,10.23
2019-05-23T08:32:06.685Z,12.67
2019-05-23T08:34:41.157Z,16.57
2019-05-23T08:37:03.891Z,11.97
2019-05-23T08:39:32.541Z,9.53
2019-05-23T08:42:00.213Z,8.77
2019-05-23T08:44:28.110Z,8.40
2019-05-23T08:46:54.979Z,7.57
2019-05-23T08:49:22.389Z,8.07
2019-05-23T08:51:49.676Z,8.63
2019-05-23T08:54:16.403Z,8.00
2019-05-23T08:56:48.966Z,8.50
2019-05-23T08:59:16.279Z,9.10
2019-05-23T09:01:44.800Z,8.30
2019-05-23T09:04:15.512Z,8.20
2019-05-23T09:06:44.226Z,6.77
2019-05-23T09:09:28.274Z,6.00
2019-05-23T09:11:44.180Z,5.67
2019-05-23T09:14:13.762Z,6.57
2019-05-23T09:16:42.539Z,6.07
2019-05-23T09:19:09.343Z,5.50
2019-05-23T09:21:37.083Z,5.30
2019-05-23T09:24:06.241Z,5.83
2019-05-23T09:26:33.858Z,5.63
2019-05-23T09:29:03.660Z,4.70
2019-05-23T09:31:31.179Z,5.73
2019-05-23T09:33:57.858Z,6.30
2019-05-23T09:36:24.741Z,5.50
2019-05-23T09:38:51.505Z,5.03
2019-05-23T09:41:18.252Z,6.23
2019-05-23T09:43:45.053Z,5.17
2019-05-23T09:46:11.664Z,6.20
2019-05-23T09:48:38.521Z,6.30
2019-05-23T09:51:05.268Z,5.97
2019-05-23T09:53:31.892Z,4.67
2019-05-23T09:56:00.348Z,5.60
2019-05-23T09:58:27.341Z,5.53
2019-05-23T10:00:54.621Z,5.17
2019-05-23T10:03:21.685Z,5.03
2019-05-23T10:05:48.520Z,6.77
2019-05-23T10:08:15.162Z,4.83
2019-05-23T10:10:43.078Z,4.73
2019-05-23T10:13:09.801Z,3.90
2019-05-23T10:15:38.548Z,4.57
2019-05-23T10:18:07.026Z,4.17
2019-05-23T10:20:34.386Z,3.07
2019-05-23T10:23:01.656Z,3.33
2019-05-23T10:25:28.490Z,3.50
2019-05-23T10:27:55.941Z,3.50
2019-05-23T10:30:24.483Z,3.13
2019-05-23T10:32:51.298Z,3.60
2019-05-23T10:35:18.611Z,3.30
2019-05-23T10:37:45.652Z,3.03
2019-05-23T10:40:15.003Z,3.03
2019-05-23T10:42:41.876Z,3.27
2019-05-23T10:45:09.551Z,3.53
2019-05-23T10:47:36.679Z,3.50
2019-05-23T10:50:09.760Z,2.73
2019-05-23T10:52:36.480Z,2.27
2019-05-23T10:55:04.217Z,2.47
2019-05-23T10:57:31.020Z,3.50
2019-05-23T10:59:57.865Z,3.00
2019-05-23T11:02:27.088Z,4.63
2019-05-23T11:04:54.150Z,3.23
2019-05-23T11:07:22.041Z,2.73
2019-05-23T11:09:48.990Z,2.90
2019-05-23T11:12:17.086Z,2.50
2019-05-23T11:14:44.666Z,2.30
2019-05-23T11:17:11.921Z,7.17
2019-05-23T11:19:52.663Z,2.73
2019-05-23T11:22:19.604Z,3.07
2019-05-23T11:24:46.257Z,2.90
2019-05-23T11:27:13.114Z,3.30
2019-05-23T11:29:40.448Z,3.53
2019-05-23T11:32:09.095Z,3.63
2019-05-23T11:34:36.452Z,3.60
2019-05-23T11:37:03.287Z,3.43
2019-05-23T11:39:30.460Z,3.17
2019-05-23T11:41:57.411Z,2.57
2019-05-23T11:44:24.225Z,4.07
2019-05-23T11:46:51.921Z,3.77
2019-05-23T11:49:19.146Z,3.63
2019-05-23T11:51:46.417Z,4.60
2019-05-23T11:54:14.108Z,4.47
2019-05-23T11:56:41.010Z,4.93
2019-05-23T11:59:08.063Z,3.60
2019-05-23T12:01:36.603Z,3.77
2019-05-23T12:04:06.840Z,4.57
2019-05-23T12:06:53.649Z,10.63
2019-05-23T12:09:05.866Z,3.93
2019-05-23T12:11:36.535Z,4.33
2019-05-23T12:14:03.314Z,3.87
2019-05-23T12:16:30.407Z,3.90
2019-05-23T12:19:01.980Z,3.70
2019-05-23T12:21:32.293Z,5.23
2019-05-23T12:23:59.318Z,4.17
2019-05-23T12:26:26.235Z,4.37
2019-05-23T12:28:53.379Z,3.50
2019-05-23T12:31:22.259Z,5.93
2019-05-23T12:33:50.322Z,3.30
2019-05-23T12:36:20.004Z,4.90
2019-05-23T12:38:47.247Z,5.57
2019-05-23T12:41:16.093Z,4.27
2019-05-23T12:43:42.925Z,5.40
2019-05-23T12:46:09.723Z,4.77
2019-05-23T12:48:41.333Z,4.47
2019-05-23T12:51:17.280Z,5.63
2019-05-23T12:53:44.628Z,4.60
2019-05-23T12:56:11.647Z,9.10
2019-05-23T12:58:39.517Z,6.50
2019-05-23T13:01:09.202Z,5.03
2019-05-23T13:03:36.502Z,5.50
2019-05-23T13:06:07.989Z,4.80
2019-05-23T13:08:35.370Z,4.80
2019-05-23T13:11:02.531Z,5.40
2019-05-23T13:13:29.156Z,5.13
2019-05-23T13:15:56.071Z,6.07
2019-05-23T13:18:23.167Z,5.20
2019-05-23T13:20:50.035Z,4.67
2019-05-23T13:23:20.737Z,5.20
2019-05-23T13:25:46.093Z,5.80
2019-05-23T13:28:12.939Z,4.90
2019-05-23T13:30:41.916Z,5.20
2019-05-23T13:33:08.590Z,5.23
2019-05-23T13:35:35.948Z,5.27
2019-05-23T13:38:03.007Z,5.27
2019-05-23T13:40:32.159Z,4.60
2019-05-23T13:42:58.817Z,4.77
2019-05-23T13:45:25.608Z,5.53
2019-05-23T13:47:53.399Z,3.80
2019-05-23T13:50:20.544Z,5.17
2019-05-23T13:52:47.892Z,5.60
2019-05-23T13:55:14.894Z,3.97
2019-05-23T13:57:41.993Z,4.77
2019-05-23T14:00:09.653Z,4.73
2019-05-23T14:02:36.601Z,4.70
2019-05-23T14:05:06.981Z,4.60
2019-05-23T14:07:34.110Z,4.60
2019-05-23T14:10:01.532Z,4.53
2019-05-23T14:12:28.371Z,4.67
2019-05-23T14:14:55.215Z,4.77
2019-05-23T14:17:30.173Z,4.03
2019-05-23T14:19:56.982Z,6.37
2019-05-23T14:22:23.836Z,4.70
2019-05-23T14:24:50.814Z,4.80
2019-05-23T14:27:28.335Z,4.60
2019-05-23T14:29:55.183Z,5.77
2019-05-23T14:32:23.951Z,6.20
2019-05-23T14:34:54.530Z,3.87
2019-05-23T14:37:32.231Z,4.27
2019-05-23T14:40:00.955Z,4.53
2019-05-23T14:42:41.765Z,4.17
2019-05-23T14:45:14.263Z,6.13
2019-05-23T14:48:01.457Z,8.90
2019-05-23T14:50:30.987Z,5.97
2019-05-23T14:52:59.911Z,5.80
2019-05-23T14:55:27.299Z,3.87
2019-05-23T14:57:54.482Z,3.80
2019-05-23T15:00:24.921Z,3.37
2019-05-23T15:02:52.369Z,2.70
2019-05-23T15:05:19.187Z,3.83
2019-05-23T15:07:45.866Z,3.83
2019-05-23T15:10:14.104Z,4.00
2019-05-23T15:12:41.025Z,4.07
2019-05-23T15:15:09.957Z,3.57
2019-05-23T15:17:36.690Z,3.70
2019-05-23T15:20:05.749Z,3.43
2019-05-23T15:22:33.716Z,3.57
2019-05-23T15:25:00.774Z,4.67
2019-05-23T15:27:28.005Z,3.90
2019-05-23T15:29:54.916Z,3.13
2019-05-23T15:32:21.526Z,3.87
2019-05-23T15:34:49.433Z,3.57
2019-05-23T15:37:17.293Z,4.40
2019-05-23T15:39:43.929Z,4.13
2019-05-23T15:42:10.953Z,3.57
2019-05-23T15:44:38.752Z,3.60
2019-05-23T15:47:05.499Z,3.73
2019-05-23T15:49:34.356Z,4.30
2019-05-23T15:52:20.138Z,5.37
2019-05-23T15:54:51.415Z,4.30
2019-05-23T15:57:26.211Z,4.00
2019-05-23T16:00:11.768Z,3.93
2019-05-23T16:02:43.644Z,3.80
2019-05-23T16:05:12.435Z,3.60
2019-05-23T16:07:39.562Z,3.87
2019-05-23T16:10:06.547Z,3.43
2019-05-23T16:12:33.611Z,4.07
2019-05-23T16:15:00.464Z,3.07
2019-05-23T16:17:27.898Z,3.50
2019-05-23T16:19:54.959Z,3.07
2019-05-23T16:22:23.063Z,3.17
2019-05-23T16:24:51.046Z,2.67
2019-05-23T16:27:18.113Z,3.20
2019-05-23T16:29:44.862Z,2.93
2019-05-23T16:32:11.593Z,3.10
2019-05-23T16:34:38.586Z,3.27
2019-05-23T16:37:06.019Z,3.53
2019-05-23T16:39:46.444Z,3.47
2019-05-23T16:42:01.992Z,3.43
2019-05-23T16:44:28.875Z,3.33
2019-05-23T16:46:57.743Z,4.77
2019-05-23T16:49:24.512Z,3.53
2019-05-23T16:51:56.836Z,3.87
2019-05-23T16:54:26.579Z,3.47
2019-05-23T16:57:16.911Z,4.27
2019-05-23T17:00:16.843Z,3.77
2019-05-23T17:02:45.975Z,3.93
2019-05-23T17:05:27.175Z,2.73
2019-05-23T17:08:06.206Z,3.60
2019-05-23T17:10:39.094Z,3.57
2019-05-23T17:13:27.921Z,3.57
2019-05-23T17:16:03.033Z,2.87
2019-05-23T17:18:43.281Z,3.20
2019-05-23T17:21:26.110Z,3.50
2019-05-23T17:23:59.579Z,3.37
2019-05-23T17:26:30.010Z,3.23
2019-05-23T17:29:00.671Z,2.60
2019-05-23T17:31:32.681Z,3.43
2019-05-23T17:34:00.523Z,2.97
2019-05-23T17:36:27.739Z,2.73
2019-05-23T17:38:57.339Z,4.30
2019-05-23T17:41:25.087Z,3.00
2019-05-23T17:43:53.325Z,4.43
2019-05-23T17:46:21.006Z,2.63
2019-05-23T17:48:47.978Z,2.87
2019-05-23T17:51:15.022Z,4.10
2019-05-23T17:53:41.677Z,2.90
2019-05-23T17:56:08.523Z,3.00
2019-05-23T17:58:36.485Z,4.10
2019-05-23T18:01:04.637Z,3.07
2019-05-23T18:03:36.073Z,2.47
2019-05-23T18:06:03.955Z,3.50
2019-05-23T18:08:31.647Z,3.53
2019-05-23T18:10:59.171Z,3.87
2019-05-23T18:13:26.189Z,2.77
2019-05-23T18:15:54.116Z,2.70
2019-05-23T18:18:21.017Z,3.60
2019-05-23T18:20:48.530Z,3.27
2019-05-23T18:23:16.158Z,2.30
2019-05-23T18:25:42.930Z,2.93
2019-05-23T18:28:11.668Z,3.07
2019-05-23T18:30:51.117Z,4.80
2019-05-23T18:33:18.470Z,3.77
2019-05-23T18:35:46.164Z,3.70
2019-05-23T18:38:12.939Z,3.03
2019-05-23T18:40:40.049Z,2.80
2019-05-23T18:43:07.323Z,2.97
2019-05-23T18:45:35.433Z,2.10
2019-05-23T18:48:03.552Z,18.13
2019-05-23T18:50:30.598Z,3.67
2019-05-23T18:52:57.752Z,3.27
2019-05-23T18:55:24.696Z,2.73
2019-05-23T18:57:51.881Z,2.30
2019-05-23T19:00:22.520Z,3.00
2019-05-23T19:02:49.228Z,3.00
2019-05-23T19:05:16.587Z,2.97
2019-05-23T19:07:43.445Z,2.93
2019-05-23T19:10:10.989Z,3.07
2019-05-23T19:12:38.043Z,2.70
2019-05-23T19:15:05.841Z,3.07
2019-05-23T19:17:33.254Z,3.47
2019-05-23T19:20:00.349Z,3.23
2019-05-23T19:22:27.298Z,3.07
2019-05-23T19:24:54.993Z,3.00
2019-05-23T19:27:21.639Z,3.80
2019-05-23T19:29:48.271Z,4.83
2019-05-23T19:32:15.343Z,4.07
2019-05-23T19:34:42.254Z,3.73
2019-05-23T19:37:09.930Z,3.30
2019-05-23T19:39:38.909Z,3.27
2019-05-23T19:42:06.083Z,4.17
2019-05-23T19:44:33.171Z,4.67
2019-05-23T19:47:00.230Z,3.37
2019-05-23T19:49:27.586Z,3.10
2019-05-23T19:51:54.657Z,3.17
2019-05-23T19:54:21.552Z,3.47
2019-05-23T19:56:48.473Z,3.50
2019-05-23T19:59:15.816Z,5.10
2019-05-23T20:01:47.315Z,3.97
2019-05-23T20:04:16.397Z,3.43
2019-05-23T20:06:43.250Z,5.17
2019-05-23T20:09:12.591Z,4.37
2019-05-23T20:11:53.258Z,5.37
2019-05-23T20:14:08.498Z,3.60
2019-05-23T20:16:35.640Z,4.67
2019-05-23T20:19:03.768Z,5.87
2019-05-23T20:21:31.149Z,6.03
2019-05-23T20:24:00.697Z,6.77
2019-05-23T20:26:27.520Z,6.67
2019-05-23T20:28:54.630Z,6.17
2019-05-23T20:31:21.723Z,6.70
2019-05-23T20:33:49.223Z,4.63
2019-05-23T20:36:16.641Z,5.57
2019-05-23T20:38:43.756Z,5.50
2019-05-23T20:41:10.535Z,7.50
2019-05-23T20:43:37.158Z,7.10
2019-05-23T20:46:03.966Z,5.70
2019-05-23T20:48:31.015Z,6.23
2019-05-23T20:50:57.827Z,5.80
2019-05-23T20:53:24.883Z,5.63
2019-05-23T20:55:51.581Z,6.10
2019-05-23T20:58:19.004Z,5.23
2019-05-23T21:00:53.611Z,5.63
2019-05-23T21:03:22.335Z,6.33
2019-05-23T21:05:49.353Z,6.27
2019-05-23T21:08:16.021Z,6.00
2019-05-23T21:10:45.254Z,6.30
2019-05-23T21:13:12.076Z,6.70
2019-05-23T21:15:40.896Z,7.00
2019-05-23T21:18:07.503Z,7.27
2019-05-23T21:20:34.859Z,6.60
2019-05-23T21:23:01.804Z,6.33
2019-05-23T21:25:28.842Z,7.00
2019-05-23T21:27:56.058Z,6.80
2019-05-23T21:30:22.901Z,6.97
2019-05-23T21:32:49.805Z,5.43
2019-05-23T21:35:16.610Z,5.50
2019-05-23T21:37:43.354Z,9.67
2019-05-23T21:40:16.838Z,5.60
2019-05-23T21:42:47.642Z,7.80
2019-05-23T21:45:16.263Z,4.90
2019-05-23T21:47:50.231Z,5.80
2019-05-23T21:50:16.806Z,4.93
2019-05-23T21:52:43.787Z,5.17
2019-05-23T21:55:14.218Z,5.50
2019-05-23T21:57:41.023Z,4.70
2019-05-23T22:00:10.692Z,5.30
2019-05-23T22:02:39.311Z,4.60
2019-05-23T22:05:11.128Z,5.80
2019-05-23T22:07:38.011Z,5.37
2019-05-23T22:10:04.896Z,4.23
2019-05-23T22:12:33.100Z,4.33
2019-05-23T22:15:00.177Z,4.67
2019-05-23T22:17:27.365Z,4.80
2019-05-23T22:19:54.244Z,4.30
2019-05-23T22:22:21.066Z,6.03
2019-05-23T22:24:47.832Z,5.13
2019-05-23T22:27:15.690Z,4.47
2019-05-23T22:29:42.426Z,4.63
2019-05-23T22:32:11.184Z,5.50
2019-05-23T22:34:40.109Z,5.47
2019-05-23T22:37:08.954Z,5.20
2019-05-23T22:39:35.697Z,5.00
2019-05-23T22:42:05.212Z,5.53
2019-05-23T22:44:31.962Z,6.13
2019-05-23T22:46:58.961Z,6.33
2019-05-23T22:49:25.602Z,5.67
2019-05-23T22:51:52.254Z,6.10
2019-05-23T22:54:19.001Z,5.43
2019-05-23T22:56:47.691Z,5.17
2019-05-23T22:59:14.483Z,5.70
2019-05-23T23:01:41.388Z,6.00
2019-05-23T23:04:09.243Z,5.47
2019-05-23T23:06:37.236Z,5.70
2019-05-23T23:09:05.737Z,5.57
2019-05-23T23:11:32.631Z,5.97
2019-05-23T23:13:59.558Z,5.07
2019-05-23T23:16:26.435Z,5.60
2019-05-23T23:18:54.184Z,6.83
2019-05-23T23:21:20.981Z,6.57
2019-05-23T23:23:47.922Z,5.67
2019-05-23T23:26:14.685Z,5.37
2019-05-23T23:28:41.441Z,6.57
2019-05-23T23:31:08.077Z,5.93
2019-05-23T23:33:34.819Z,5.70
2019-05-23T23:36:01.682Z,6.67
2019-05-23T23:38:28.498Z,6.17
2019-05-23T23:40:55.219Z,6.00
2019-05-23T23:43:22.482Z,6.53
2019-05-23T23:46:08.470Z,5.93
2019-05-23T23:48:53.559Z,6.00
2019-05-23T23:51:38.814Z,6.07
2019-05-23T23:54:23.987Z,6.50
2019-05-23T23:57:09.041Z,7.53
2019-05-23T23:59:35.794Z,6.77
